Weather observations for the past three days for
Mesa Vista Ranch AP
Imperial (Metric)
Date Time (cdt) Wind (mph) Vis. (mi.) Weather Sky Cond. Temperature (ºF) Relative Humidity Wind Chill (°F) Heat Index (°F) Pressure Precipitation (in)
Air Dwpt 6 hour altimeter (in) sea level (mb) 1 hr 3 hr 6 hr
Max. Min.
09 09:35 W 5 10.00 Fair CLR 62.6 42.8 49% 29.94 0.0
09 09:15 SW 5 10.00 Fair CLR 60.8 42.8 52% 29.94 0.0
09 08:55 SW 6 10.00 Fair CLR 59 42.8 55% 29.95 0.0
09 08:35 SW 3 10.00 Fair CLR 55.4 41 59% 29.95 0.0
09 08:15 Calm 10.00 Fair CLR 55.4 41 59% 29.94 0.0
09 07:55 Calm 10.00 Fair CLR 55.4 41 59% 29.94 0.0
09 07:35 NW 3 10.00 Fair CLR 53.6 41 63% 29.93 0.0
09 07:15 W 3 10.00 Fair CLR 53.6 41 63% 29.93 0.0
09 06:55 Calm 10.00 Fair CLR 53.6 41 63% 29.93 0.0
09 06:35 W 5 10.00 Fair CLR 51.8 41 67% 29.93 0.0
09 06:15 W 3 10.00 Fair CLR 51.8 37.4 58% 29.92 0.0
09 05:55 Calm 10.00 Fair CLR 51.8 37.4 58% 29.93 0.0
09 05:35 Calm 10.00 Fair CLR 51.8 37.4 58% 29.93 0.0
09 05:15 N 3 10.00 Fair CLR 53.6 37.4 54% 29.92 0.0
09 04:55 SE 5 10.00 Fair CLR 57.2 37.4 48% 29.92 0.0
09 04:35 SE 7 10.00 Fair CLR 59 37.4 45% 29.92 0.0
09 04:15 E 5 10.00 Fair CLR 57.2 37.4 48% 29.92 0.0
09 03:55 E 7 10.00 Fair CLR 59 37.4 45% 29.93 0.0
09 03:35 SE 9 10.00 Fair CLR 59 35.6 42% 29.93 0.0
09 03:15 SE 10 10.00 Fair CLR 60.8 35.6 39% 29.94 0.0
09 02:55 E 9 G 20 10.00 Fair CLR 62.6 35.6 37% 29.94 0.0
09 02:35 E 10 10.00 Fair CLR 62.6 35.6 37% 29.93 0.0
09 02:15 E 9 10.00 Fair CLR 62.6 35.6 37% 29.93 0.0
09 01:55 E 9 10.00 Fair CLR 60.8 35.6 39% 29.94 0.0
09 01:35 E 9 10.00 Fair CLR 60.8 35.6 39% 29.93 0.0
09 01:15 E 7 10.00 Fair CLR 60.8 35.6 39% 29.94 0.0
09 00:55 E 9 10.00 Fair CLR 60.8 37.4 42% 29.94 0.0
09 00:35 E 8 10.00 Fair CLR 60.8 37.4 42% 29.93 0.0
09 00:15 E 6 10.00 Fair CLR 60.8 37.4 42% 29.94 0.0
08 23:55 E 7 10.00 Fair CLR 60.8 37.4 42% 29.93 0.0
08 23:35 E 8 10.00 Fair CLR 62.6 37.4 39% 29.92 0.0
08 23:15 E 7 10.00 Fair CLR 62.6 37.4 39% 29.92 0.0
08 22:55 Calm 10.00 Fair CLR 64.4 37.4 37% 29.92 0.0
08 22:35 NE 5 10.00 Fair CLR 66.2 37.4 35% 29.91 0.0
08 22:15 NE 5 10.00 Fair CLR 68 37.4 33% 29.9 0.0
08 21:55 E 6 10.00 Fair CLR 68 37.4 33% 29.89 0.0
08 21:35 NE 7 10.00 Fair CLR 69.8 37.4 31% 29.88 0.0
08 21:15 NE 6 10.00 Fair CLR 71.6 37.4 29% 29.87 0.0
08 20:55 NE 6 10.00 Fair CLR 73.4 35.6 25% 29.86 0.0
08 20:35 NE 7 10.00 Fair CLR 77 35.6 22% 77 29.86 0.0
08 20:15 NE 9 10.00 Fair CLR 78.8 35.6 21% 78 29.85 0.0
08 19:55 N 8 10.00 Fair CLR 80.6 33.8 18% 79 29.85 0.0
08 19:35 N 8 10.00 Fair CLR 80.6 33.8 18% 79 29.84 0.0
08 19:15 N 14 G 22 10.00 Fair CLR 82.4 33.8 17% 80 29.85 0.0
08 18:55 N 8 10.00 Fair CLR 82.4 33.8 17% 80 29.85 0.0
08 18:35 N 12 G 17 10.00 Partly Cloudy SCT100 82.4 33.8 17% 80 29.85 0.0
08 18:15 N 13 G 22 10.00 Partly Cloudy SCT100 82.4 35.6 19% 80 29.85 0.0
08 17:55 N 9 10.00 Partly Cloudy SCT100 82.4 33.8 17% 80 29.85 0.0
08 17:35 N 12 G 25 10.00 Partly Cloudy SCT100 82.4 33.8 17% 80 29.85 0.0
08 17:15 N 18 10.00 Fair CLR 82.4 33.8 17% 80 29.85 0.0
08 16:55 NW 9 10.00 Partly Cloudy SCT090 82.4 33.8 17% 80 29.85 0.0
08 16:35 N 10 G 24 10.00 Partly Cloudy SCT090 82.4 35.6 19% 80 29.85 0.0
08 16:15 N 18 G 22 10.00 Fair CLR 82.4 35.6 19% 80 29.86 0.0
08 15:55 NE 13 G 21 10.00 Fair CLR 82.4 35.6 19% 80 29.86 0.0
08 15:35 N 13 G 22 10.00 Fair CLR 82.4 35.6 19% 80 29.86 0.0
08 15:15 N 8 G 23 10.00 Fair CLR 80.6 35.6 20% 79 29.88 0.0
08 14:55 NE 14 G 23 10.00 Fair CLR 80.6 35.6 20% 79 29.87 0.0
08 14:35 N 18 G 24 10.00 Fair CLR 80.6 35.6 20% 79 29.87 0.0
08 14:15 N 12 G 23 10.00 Fair CLR 80.6 33.8 18% 79 29.87 0.0
08 13:55 N 12 G 20 10.00 Fair CLR 80.6 32 17% 79 29.87 0.0
08 13:35 N 15 G 18 10.00 Fair CLR 80.6 32 17% 79 29.87 0.0
08 13:15 N 12 G 16 10.00 Fair CLR 78.8 33.8 20% 78 29.87 0.0
08 12:55 NW 10 G 17 10.00 Fair CLR 78.8 35.6 21% 78 29.88 0.0
08 12:35 N 9 G 13 10.00 Fair CLR 78.8 35.6 21% 78 29.88 0.0
08 12:15 N 8 10.00 Fair CLR 77 41 28% 78 29.88 0.0
08 11:55 W 6 G 17 10.00 Fair CLR 77 42.8 30% 78 29.89 0.0
08 11:35 W 7 G 16 10.00 Fair CLR 73.4 42.8 33% 29.89 0.0
08 11:15 W 6 G 16 10.00 Fair CLR 73.4 42.8 33% 29.9 0.0
08 10:55 SW 14 G 17 10.00 Fair CLR 71.6 42.8 36% 29.9 0.0
08 10:35 W 16 G 21 10.00 Fair CLR 71.6 42.8 36% 29.89 0.0
08 10:15 W 15 G 21 10.00 Fair CLR 69.8 44.6 40% 29.89 0.0
08 09:55 W 18 10.00 Fair CLR 68 44.6 43% 29.89 0.0
08 09:35 W 14 10.00 Fair CLR 64.4 44.6 49% 29.9 0.0
08 09:15 SW 10 10.00 Fair CLR 60.8 44.6 55% 29.9 0.0
08 08:55 SW 12 G 17 10.00 Fair CLR 60.8 44.6 55% 29.9 0.0
08 08:35 SW 10 10.00 Fair CLR 59 44.6 59% 29.9 0.0
08 08:15 SW 14 10.00 Fair CLR 59 44.6 59% 29.9 0.0
08 07:55 SW 17 10.00 Fair CLR 57.2 42.8 59% 29.88 0.0
08 07:35 SW 15 10.00 Fair CLR 55.4 42.8 63% 29.88 0.0
08 07:15 SW 15 10.00 Fair CLR 55.4 42.8 63% 29.88 0.0
08 06:55 SW 14 10.00 Fair CLR 55.4 42.8 63% 29.88 0.0
08 06:35 SW 14 10.00 Fair CLR 53.6 42.8 67% 29.88 0.0
08 06:15 SW 13 10.00 Fair CLR 55.4 41 59% 29.88 0.0
08 05:55 SW 13 10.00 Fair CLR 55.4 41 59% 29.88 0.0
08 05:35 SW 14 10.00 Fair CLR 55.4 41 59% 29.88 0.0
08 05:15 SW 10 10.00 Fair CLR 51.8 39.2 62% 29.89 0.0
08 04:55 SW 8 10.00 Fair CLR 51.8 39.2 62% 29.89 0.0
08 04:35 SW 10 10.00 Fair CLR 53.6 39.2 58% 29.9 0.0
08 04:15 SW 9 10.00 Fair CLR 51.8 41 67% 29.9 0.0
08 03:55 Calm 10.00 Fair CLR 53.6 39.2 58% 29.89 0.0
08 03:35 W 5 10.00 Fair CLR 51.8 39.2 62% 29.9 0.0
08 03:15 SW 7 10.00 Fair CLR 55.4 39.2 55% 29.9 0.0
08 02:55 SW 5 10.00 Fair CLR 57.2 39.2 51% 29.91 0.0
08 02:35 SW 8 10.00 Fair CLR 59 39.2 48% 29.91 0.0
08 02:15 SW 7 10.00 Fair CLR 57.2 39.2 51% 29.91 0.0
08 01:55 Calm 10.00 Fair CLR 60.8 37.4 42% 29.92 0.0
08 01:35 SW 6 10.00 Fair CLR 59 37.4 45% 29.92 0.0
08 01:15 S 12 10.00 Fair CLR 60.8 37.4 42% 29.92 0.0
08 00:55 S 14 10.00 Fair CLR 60.8 37.4 42% 29.92 0.0
08 00:35 S 14 G 17 10.00 Fair CLR 62.6 35.6 37% 29.92 0.0
08 00:15 S 14 10.00 Fair CLR 62.6 35.6 37% 29.92 0.0
07 23:55 S 14 10.00 Fair CLR 60.8 35.6 39% 29.93 0.0
07 23:35 Calm 10.00 Fair CLR 59 33.8 39% 29.93 0.0
07 23:15 Calm 10.00 Fair CLR 60.8 32 34% 29.93 0.0
07 22:55 S 5 10.00 Fair CLR 60.8 33.8 36% 29.94 0.0
07 22:35 S 5 10.00 Fair CLR 66.2 32 28% 29.93 0.0
07 22:15 Calm 10.00 Fair CLR 66.2 32 28% 29.93 0.0
07 21:55 Calm 10.00 Fair CLR 68 32 26% 29.92 0.0
07 21:35 Calm 10.00 Fair CLR 68 32 26% 29.92 0.0
07 21:15 Calm 10.00 Fair CLR 69.8 32 25% 29.92 0.0
07 20:55 Calm 10.00 Fair CLR 71.6 32 23% 29.92 0.0
07 20:35 Calm 10.00 Fair CLR 73.4 33.8 23% 29.91 0.0
07 20:15 Calm 10.00 Fair CLR 75.2 32 21% 76 29.9 0.0
07 19:55 SW 8 10.00 Fair CLR 77 32 19% 77 29.9 0.0
07 19:35 SW 8 10.00 Fair CLR 77 32 19% 77 29.9 0.0
07 19:15 SW 7 10.00 Fair CLR 77 32 19% 77 29.9 0.0
07 18:55 S 7 10.00 Fair CLR 77 32 19% 77 29.91 0.0
07 18:35 SW 9 10.00 Fair CLR 77 32 19% 77 29.91 0.0
07 18:15 S 7 10.00 Fair CLR 77 32 19% 77 29.92 0.0
07 17:55 SW 7 10.00 Fair CLR 77 30.2 18% 77 29.92 0.0
07 17:35 SW 7 G 16 10.00 Fair CLR 77 28.4 17% 77 29.93 0.0
07 17:15 SW 9 10.00 Fair CLR 77 30.2 18% 77 29.94 0.0
07 16:55 SW 10 G 16 10.00 Fair CLR 75.2 28.4 18% 76 29.95 0.0
07 16:35 W 12 G 18 10.00 Fair CLR 75.2 30.2 19% 76 29.96 0.0
07 16:15 W 8 10.00 Fair CLR 75.2 32 21% 76 29.97 0.0
07 15:55 SW 9 G 16 10.00 Fair CLR 73.4 33.8 23% 29.98 0.0
07 15:35 SW 13 G 18 10.00 Fair CLR 71.6 32 23% 29.99 0.0
07 15:15 SW 13 G 21 10.00 Fair CLR 71.6 35.6 27% 30 0.0
07 14:55 W 15 G 22 10.00 Fair CLR 71.6 33.8 25% 30.01 0.0
07 14:35 SW 16 G 22 10.00 Fair CLR 71.6 33.8 25% 30.02 0.0
07 14:15 SW 18 10.00 Fair CLR 69.8 37.4 31% 30.03 0.0
07 13:55 W 14 G 22 10.00 Fair CLR 68 39.2 35% 30.05 0.0
07 13:35 SW 14 G 22 10.00 Fair CLR 68 41 38% 30.06 0.0
07 13:15 SW 15 G 22 10.00 Fair CLR 64.4 42.8 46% 30.07 0.0
07 12:55 SW 12 G 21 10.00 Fair CLR 62.6 42.8 49% 30.09 0.0
07 12:35 SW 16 G 22 10.00 Fair CLR 62.6 42.8 49% 30.1 0.0
07 12:15 SW 17 G 24 10.00 Fair CLR 60.8 42.8 52% 30.1 0.0
07 11:55 SW 15 G 25 10.00 Fair CLR 60.8 42.8 52% 30.11 0.0
07 11:35 SW 14 G 18 10.00 Fair CLR 59 42.8 55% 30.12 0.0
07 11:15 SW 16 10.00 Fair CLR 55.4 42.8 63% 30.12 0.0
07 10:55 SW 16 G 20 10.00 Fair CLR 55.4 42.8 63% 30.13 0.0
07 10:35 SW 15 10.00 Fair CLR 53.6 42.8 67% 30.13 0.0
07 10:15 SW 15 10.00 Fair CLR 50 42.8 76% 45 30.14 0.0
07 09:55 SW 16 10.00 Fair CLR 48.2 42.8 82% 43 30.14 0.0
07 09:35 SW 16 10.00 Fair CLR 46.4 42.8 87% 40 30.15 0.0
07 09:15 SW 14 G 20 10.00 Partly Cloudy SCT006 44.6 42.8 93% 39 30.15 0.0
07 08:55 W 14 10.00 Partly Cloudy SCT006 44.6 42.8 93% 39 30.16 0.0
07 08:35 W 14 G 17 5.00 Fog/Mist CLR 42.8 41 93% 36 30.16 0.0
07 08:15 W 12 4.00 Fog/Mist CLR 42.8 41 93% 37 30.16 0.0
07 07:55 W 9 4.00 Fog/Mist CLR 41 39.2 93% 36 30.16 0.0
07 07:35 W 6 4.00 Fog/Mist CLR 41 37.4 87% 38 30.16 0.0
07 07:15 W 7 4.00 Fog/Mist CLR 39.2 37.4 93% 35 30.15 0.0
07 06:55 SW 8 5.00 Fog/Mist CLR 39.2 37.4 93% 34 30.16 0.0
07 06:35 SW 6 7.00 Fair CLR 39.2 37.4 93% 36 30.16 0.0
07 06:15 W 7 7.00 Fair CLR 39.2 37.4 93% 35 30.16 0.0
07 05:55 SW 7 7.00 Fair CLR 39.2 37.4 93% 35 30.16 0.0
07 05:35 SW 7 7.00 Fair CLR 39.2 37.4 93% 35 30.17 0.0
07 05:15 W 7 5.00 Fog/Mist CLR 39.2 37.4 93% 35 30.17 0.0
07 04:55 W 6 5.00 Fog/Mist CLR 41 37.4 87% 38 30.17 0.0
07 04:35 W 6 7.00 Fair CLR 41 37.4 87% 38 30.17 0.0
07 04:15 W 6 7.00 Fair CLR 41 39.2 93% 38 30.17 0.0
07 03:55 W 5 10.00 Fair CLR 42.8 41 93% 41 30.17 0.0
07 03:35 Calm 7.00 Fair CLR 42.8 41 93% 30.17 0.0
07 03:15 W 3 10.00 Partly Cloudy SCT015 42.8 41 93% 30.18 0.0
07 02:55 NW 3 10.00 Partly Cloudy SCT017 SCT085 SCT110 42.8 41 93% 30.18 0.0
07 02:35 W 3 10.00 Partly Cloudy SCT090 SCT120 42.8 42.8 100% 30.2 0.0
07 02:15 W 5 7.00 Partly Cloudy SCT060 SCT080 SCT120 42.8 42.8 100% 41 30.2 0.0
07 01:55 NW 5 10.00 Light Drizzle BKN065 OVC080 42.8 41 93% 41 30.2 0.0 0.01
07 01:35 Calm 10.00 Rain BKN065 BKN080 OVC090 42.8 41 93% 30.2 0.0 0.01
07 01:15 NW 3 10.00 Light Rain SCT025 SCT047 BKN080 42.8 41 93% 30.19 0.0 0.01
07 00:55 N 5 5.00 Rain SCT020 SCT029 OVC048 44.6 42.8 93% 43 30.19 0.0 0.12
07 00:35 NW 8 5.00 Heavy Rain SCT020 BKN030 OVC050 44.6 41 87% 41 30.21 0.0 0.08
07 00:15 N 6 7.00 Rain SCT025 SCT032 BKN055 44.6 41 87% 42 30.2 0.0 0.02
06 23:55 N 5 7.00 Rain SCT023 BKN028 BKN039 44.6 41 87% 43 30.19 0.0 0.06
06 23:35 N 5 10.00 Rain SCT010 SCT014 SCT019 44.6 39.2 81% 43 30.19 0.0 0.02
06 23:15 N 5 10.00 Light Rain SCT010 SCT014 BKN065 46.4 37.4 71% 45 30.19 0.0
06 22:55 N 7 10.00 Light Drizzle SCT065 46.4 35.6 66% 43 30.18 0.0
06 22:35 N 12 G 16 10.00 Mostly Cloudy BKN065 50 33.8 54% 46 30.18 0.0
06 22:15 N 12 10.00 Partly Cloudy SCT065 50 33.8 54% 46 30.17 0.0
06 21:55 N 10 10.00 Mostly Cloudy BKN065 50 33.8 54% 46 30.16 0.0
06 21:35 N 12 10.00 Overcast OVC065 51.8 32 47% 30.14 0.0
06 21:15 N 15 G 21 10.00 Overcast OVC065 51.8 32 47% 30.13 0.0
06 20:55 N 13 10.00 Mostly Cloudy BKN065 51.8 32 47% 30.11 0.0
06 20:35 N 13 10.00 Mostly Cloudy BKN065 53.6 32 44% 30.09 0.0
06 20:15 NE 9 10.00 Mostly Cloudy BKN065 53.6 33.8 47% 30.08 0.0
06 19:55 NE 13 10.00 Partly Cloudy SCT065 53.6 33.8 47% 30.07 0.0
06 19:35 NE 13 G 17 10.00 Partly Cloudy SCT065 53.6 33.8 47% 30.05 0.0
06 19:15 NE 12 10.00 Fair CLR 57.2 33.8 41% 30.05 0.0
06 18:55 NE 12 10.00 Partly Cloudy SCT045 57.2 33.8 41% 30.05 0.0
06 18:35 NE 13 G 22 10.00 Partly Cloudy SCT045 57.2 33.8 41% 30.05 0.0
06 18:15 NE 14 G 20 10.00 Partly Cloudy SCT045 57.2 33.8 41% 30.05 0.0
06 17:55 NE 10 10.00 Partly Cloudy SCT043 55.4 33.8 44% 30.05 0.0
06 17:35 E 7 G 17 10.00 Partly Cloudy SCT043 57.2 33.8 41% 30.06 0.0
06 17:15 E 8 G 17 10.00 Partly Cloudy SCT041 55.4 32 41% 30.06 0.0
06 16:55 NE 12 G 17 10.00 Partly Cloudy SCT041 SCT050 55.4 33.8 44% 30.05 0.0
06 16:35 E 10 G 18 10.00 Partly Cloudy SCT041 SCT050 57.2 32 39% 30.06 0.0
06 16:15 E 7 10.00 Fair CLR 55.4 33.8 44% 30.07 0.0
06 15:55 NE 5 10.00 Partly Cloudy SCT039 53.6 33.8 47% 30.08 0.0
06 15:35 E 9 10.00 Partly Cloudy SCT039 53.6 33.8 47% 30.09 0.0
06 15:15 NE 8 G 16 10.00 Mostly Cloudy BKN037 53.6 33.8 47% 30.08 0.0
06 14:55 NE 9 10.00 Mostly Cloudy BKN035 53.6 33.8 47% 30.08 0.0
06 14:35 NE 8 10.00 Mostly Cloudy BKN033 51.8 33.8 50% 30.08 0.0
06 14:15 E 9 10.00 Mostly Cloudy BKN033 53.6 33.8 47% 30.09 0.0
06 13:55 NE 7 10.00 Mostly Cloudy BKN033 51.8 33.8 50% 30.09 0.0
06 13:35 E 9 10.00 Mostly Cloudy BKN031 51.8 33.8 50% 30.09 0.0
06 13:15 E 7 10.00 Overcast OVC029 50 33.8 54% 48 30.11 0.0
06 12:55 E 8 10.00 Overcast OVC027 50 33.8 54% 47 30.11 0.0
06 12:35 NE 8 10.00 Overcast OVC027 48.2 33.8 58% 45 30.11 0.0
06 12:15 E 8 10.00 Mostly Cloudy BKN025 BKN031 48.2 33.8 58% 45 30.1 0.0
06 11:55 E 9 10.00 Mostly Cloudy SCT023 BKN031 46.4 33.8 62% 42 30.1 0.0
06 11:35 NE 9 10.00 Mostly Cloudy BKN023 46.4 33.8 62% 42 30.1 0.0
06 11:15 E 10 10.00 Mostly Cloudy BKN021 46.4 33.8 62% 42 30.09 0.0
06 10:55 NE 10 G 16 10.00 Overcast OVC021 44.6 33.8 66% 40 30.09 0.0
06 10:35 E 13 10.00 Overcast OVC017 44.6 33.8 66% 39 30.07 0.0
06 10:15 E 14 10.00 Overcast OVC017 44.6 35.6 71% 39 30.07 0.0
06 09:55 NE 13 10.00 Overcast OVC017 42.8 35.6 76% 37 30.06 0.0
Date Time (cdt) Wind (mph) Vis. (mi.) Weather Sky Cond. Air Dwpt Max. Min. Relative Humidity Wind Chill (°F) Heat Index (°F) altimeter (in) sea level (mb) 1 hr 3 hr 6 hr
6 hour
Temperature (ºF) Pressure Precipitation (in)